Wixom, Michigan
Current Conditions -  °F | °C
As of 2:53 AM on Sunday 26 Oct 2014 (Local Time) from KPTK Reporting Station
Clear Clear  
Wind Chill: 42°   Ceiling: Unl
Heat Index: 48°   Visibility: 10mi
Dew Point: 30°   Wind: 14mph
Humidity: 50%   Direction: 300°WNW
Pressure: 29.83"   Gusts: NA
Location:  42.52°N, 83.53°W
Report Text: KPTK 260653Z AUTO 30012KT 10SM CLR 09/M01 A2983 RMK AO2 SLP100 T00891011
Loading
Personal Weather Stations






























Interactive Weather Map
Tropical Storm Tracking
New forecast layout! Learn more

10-Day Weather Forecast

Advertisements
Track Severe Weather on mobile